sensor_id;sensor_type;location;lat;lon;timestamp;P1;durP1;ratioP1;P2;durP2;ratioP2
673;SDS011;319;48.764;9.174;2023-03-23T14:17:26;11.10;;;10.80;;
673;SDS011;319;48.764;9.174;2023-03-23T14:19:56;10.60;;;10.30;;
673;SDS011;319;48.764;9.174;2023-03-23T14:22:25;7.43;;;7.23;;
673;SDS011;319;48.764;9.174;2023-03-23T14:24:58;0.80;;;0.80;;
673;SDS011;319;48.764;9.174;2023-03-23T14:27:26;0.90;;;0.90;;
673;SDS011;319;48.764;9.174;2023-03-23T14:29:59;0.80;;;0.80;;
673;SDS011;319;48.764;9.174;2023-03-23T14:32:30;0.90;;;0.90;;
673;SDS011;319;48.764;9.174;2023-03-23T14:34:58;0.80;;;0.80;;
673;SDS011;319;48.764;9.174;2023-03-23T14:37:26;0.90;;;0.90;;
673;SDS011;319;48.764;9.174;2023-03-23T14:39:53;0.90;;;0.90;;
673;SDS011;319;48.764;9.174;2023-03-23T14:42:23;0.90;;;0.90;;
673;SDS011;319;48.764;9.174;2023-03-23T14:44:53;0.80;;;0.80;;
673;SDS011;319;48.764;9.174;2023-03-23T14:47:21;0.90;;;0.90;;
673;SDS011;319;48.764;9.174;2023-03-23T14:49:53;0.80;;;0.80;;
673;SDS011;319;48.764;9.174;2023-03-23T14:52:22;0.90;;;0.90;;
673;SDS011;319;48.764;9.174;2023-03-23T14:54:51;0.90;;;0.90;;
673;SDS011;319;48.764;9.174;2023-03-23T14:57:18;0.80;;;0.80;;
673;SDS011;319;48.764;9.174;2023-03-23T14:59:52;0.80;;;0.80;;
673;SDS011;319;48.764;9.174;2023-03-23T15:02:20;0.80;;;0.80;;
673;SDS011;319;48.764;9.174;2023-03-23T15:04:53;0.80;;;0.80;;
673;SDS011;319;48.764;9.174;2023-03-23T15:07:22;0.80;;;0.80;;
673;SDS011;319;48.764;9.174;2023-03-23T15:09:55;0.80;;;0.80;;
673;SDS011;319;48.764;9.174;2023-03-23T15:12:23;0.80;;;0.80;;
673;SDS011;319;48.764;9.174;2023-03-23T15:14:52;2.60;;;2.60;;
673;SDS011;319;48.764;9.174;2023-03-23T15:17:21;3.37;;;3.27;;
673;SDS011;319;48.764;9.174;2023-03-23T15:19:50;2.20;;;2.20;;
673;SDS011;319;48.764;9.174;2023-03-23T15:22:21;3.10;;;3.00;;
673;SDS011;319;48.764;9.174;2023-03-23T15:24:49;3.47;;;3.37;;
673;SDS011;319;48.764;9.174;2023-03-23T15:27:22;3.23;;;3.13;;
673;SDS011;319;48.764;9.174;2023-03-23T15:29:51;3.17;;;3.07;;
673;SDS011;319;48.764;9.174;2023-03-23T15:32:20;3.30;;;3.20;;
673;SDS011;319;48.764;9.174;2023-03-23T15:34:53;3.60;;;3.50;;
673;SDS011;319;48.764;9.174;2023-03-23T15:37:23;3.80;;;3.70;;
673;SDS011;319;48.764;9.174;2023-03-23T15:39:52;3.60;;;3.50;;
673;SDS011;319;48.764;9.174;2023-03-23T15:42:21;7.27;;;7.07;;
673;SDS011;319;48.764;9.174;2023-03-23T15:44:56;11.33;;;11.03;;
673;SDS011;319;48.764;9.174;2023-03-23T15:47:33;12.70;;;12.40;;
673;SDS011;319;48.764;9.174;2023-03-23T15:50:09;11.53;;;11.23;;
673;SDS011;319;48.764;9.174;2023-03-23T15:52:38;12.20;;;11.90;;
673;SDS011;319;48.764;9.174;2023-03-23T15:55:16;11.83;;;11.53;;
673;SDS011;319;48.764;9.174;2023-03-23T15:57:47;12.57;;;12.27;;
673;SDS011;319;48.764;9.174;2023-03-23T16:00:15;9.73;;;9.53;;
673;SDS011;319;48.764;9.174;2023-03-23T16:02:42;12.93;;;12.63;;
673;SDS011;319;48.764;9.174;2023-03-23T16:05:12;12.60;;;12.30;;
673;SDS011;319;48.764;9.174;2023-03-23T16:07:39;12.20;;;11.90;;
673;SDS011;319;48.764;9.174;2023-03-23T16:10:06;12.10;;;11.80;;
673;SDS011;319;48.764;9.174;2023-03-23T16:12:39;12.70;;;12.40;;
673;SDS011;319;48.764;9.174;2023-03-23T16:15:06;1.70;;;1.70;;
673;SDS011;319;48.764;9.174;2023-03-23T16:17:36;2.47;;;2.00;;
673;SDS011;319;48.764;9.174;2023-03-23T16:20:08;0.80;;;0.80;;
673;SDS011;319;48.764;9.174;2023-03-23T16:22:39;2.67;;;2.67;;
673;SDS011;319;48.764;9.174;2023-03-23T16:25:06;9.40;;;9.20;;
673;SDS011;319;48.764;9.174;2023-03-23T16:27:33;11.87;;;11.57;;
673;SDS011;319;48.764;9.174;2023-03-23T16:30:00;12.50;;;12.20;;
673;SDS011;319;48.764;9.174;2023-03-23T16:32:28;12.87;;;12.57;;
673;SDS011;319;48.764;9.174;2023-03-23T16:34:55;10.37;;;10.07;;
673;SDS011;319;48.764;9.174;2023-03-23T16:37:24;5.13;;;5.03;;
673;SDS011;319;48.764;9.174;2023-03-23T16:39:50;4.63;;;4.53;;
673;SDS011;319;48.764;9.174;2023-03-23T16:42:17;1.87;;;1.87;;
673;SDS011;319;48.764;9.174;2023-03-23T16:44:44;3.73;;;3.63;;
673;SDS011;319;48.764;9.174;2023-03-23T16:47:12;2.60;;;2.60;;
673;SDS011;319;48.764;9.174;2023-03-23T16:49:39;2.83;;;2.73;;
673;SDS011;319;48.764;9.174;2023-03-23T16:52:06;2.60;;;2.60;;
673;SDS011;319;48.764;9.174;2023-03-23T16:54:34;2.20;;;2.20;;
673;SDS011;319;48.764;9.174;2023-03-23T16:57:01;2.70;;;2.60;;
673;SDS011;319;48.764;9.174;2023-03-23T16:59:27;9.63;;;9.43;;
673;SDS011;319;48.764;9.174;2023-03-23T17:01:54;7.30;;;7.10;;
673;SDS011;319;48.764;9.174;2023-03-23T17:04:27;2.57;;;2.57;;
673;SDS011;319;48.764;9.174;2023-03-23T17:06:53;0.80;;;0.80;;
673;SDS011;319;48.764;9.174;2023-03-23T17:09:23;0.80;;;0.80;;
673;SDS011;319;48.764;9.174;2023-03-23T17:11:54;0.90;;;0.90;;
673;SDS011;319;48.764;9.174;2023-03-23T17:14:21;0.83;;;0.83;;
673;SDS011;319;48.764;9.174;2023-03-23T17:16:48;0.90;;;0.90;;
673;SDS011;319;48.764;9.174;2023-03-23T17:19:15;0.80;;;0.80;;
673;SDS011;319;48.764;9.174;2023-03-23T17:21:41;0.80;;;0.80;;
673;SDS011;319;48.764;9.174;2023-03-23T17:24:09;12.40;;;12.10;;
673;SDS011;319;48.764;9.174;2023-03-23T17:26:36;9.70;;;9.50;;
673;SDS011;319;48.764;9.174;2023-03-23T17:29:08;6.90;;;6.70;;
673;SDS011;319;48.764;9.174;2023-03-23T17:31:34;2.73;;;2.67;;
673;SDS011;319;48.764;9.174;2023-03-23T17:34:01;2.17;;;2.17;;
673;SDS011;319;48.764;9.174;2023-03-23T17:36:28;0.90;;;0.90;;
673;SDS011;319;48.764;9.174;2023-03-23T17:38:55;0.80;;;0.80;;
673;SDS011;319;48.764;9.174;2023-03-23T17:41:21;1.00;;;1.00;;
673;SDS011;319;48.764;9.174;2023-03-23T17:43:48;1.17;;;1.17;;
673;SDS011;319;48.764;9.174;2023-03-23T17:46:16;1.10;;;1.10;;
673;SDS011;319;48.764;9.174;2023-03-23T17:48:43;1.80;;;1.80;;
673;SDS011;319;48.764;9.174;2023-03-23T17:51:10;1.00;;;1.00;;
673;SDS011;319;48.764;9.174;2023-03-23T17:53:37;1.10;;;1.10;;
673;SDS011;319;48.764;9.174;2023-03-23T17:56:04;1.20;;;1.20;;
673;SDS011;319;48.764;9.174;2023-03-23T17:58:31;0.90;;;0.90;;
673;SDS011;319;48.764;9.174;2023-03-23T18:00:59;0.90;;;0.90;;
673;SDS011;319;48.764;9.174;2023-03-23T18:03:28;0.90;;;0.90;;
673;SDS011;319;48.764;9.174;2023-03-23T18:05:57;0.90;;;0.90;;
673;SDS011;319;48.764;9.174;2023-03-23T18:08:24;1.90;;;1.90;;
673;SDS011;319;48.764;9.174;2023-03-23T18:10:53;10.70;;;10.40;;
673;SDS011;319;48.764;9.174;2023-03-23T18:13:20;9.90;;;9.70;;
673;SDS011;319;48.764;9.174;2023-03-23T18:15:47;12.00;;;11.70;;
673;SDS011;319;48.764;9.174;2023-03-23T18:18:14;10.10;;;9.80;;
673;SDS011;319;48.764;9.174;2023-03-23T18:20:42;12.30;;;12.00;;
673;SDS011;319;48.764;9.174;2023-03-23T18:23:10;11.70;;;11.40;;
673;SDS011;319;48.764;9.174;2023-03-23T18:25:37;11.63;;;11.33;;
673;SDS011;319;48.764;9.174;2023-03-23T18:28:04;11.67;;;11.37;;
673;SDS011;319;48.764;9.174;2023-03-23T18:30:31;12.10;;;11.80;;
673;SDS011;319;48.764;9.174;2023-03-23T18:32:58;11.60;;;11.30;;
673;SDS011;319;48.764;9.174;2023-03-23T18:35:25;13.33;;;13.03;;
673;SDS011;319;48.764;9.174;2023-03-23T18:37:53;11.70;;;11.40;;
673;SDS011;319;48.764;9.174;2023-03-23T18:40:20;10.93;;;10.63;;
673;SDS011;319;48.764;9.174;2023-03-23T18:42:50;10.40;;;10.10;;
673;SDS011;319;48.764;9.174;2023-03-23T18:45:17;10.77;;;10.47;;
673;SDS011;319;48.764;9.174;2023-03-23T18:47:43;9.93;;;9.73;;
673;SDS011;319;48.764;9.174;2023-03-23T18:50:10;11.17;;;10.87;;
673;SDS011;319;48.764;9.174;2023-03-23T18:52:37;2.27;;;2.27;;
673;SDS011;319;48.764;9.174;2023-03-23T18:55:05;1.00;;;1.00;;
673;SDS011;319;48.764;9.174;2023-03-23T18:57:33;9.20;;;9.00;;
673;SDS011;319;48.764;9.174;2023-03-23T19:00:00;9.03;;;8.83;;
673;SDS011;319;48.764;9.174;2023-03-23T19:02:28;9.00;;;8.80;;
673;SDS011;319;48.764;9.174;2023-03-23T19:04:55;9.10;;;8.90;;
673;SDS011;319;48.764;9.174;2023-03-23T19:07:22;9.73;;;9.53;;
673;SDS011;319;48.764;9.174;2023-03-23T19:09:49;7.10;;;6.90;;
673;SDS011;319;48.764;9.174;2023-03-23T19:12:17;6.90;;;6.70;;
673;SDS011;319;48.764;9.174;2023-03-23T19:14:45;6.70;;;6.50;;
673;SDS011;319;48.764;9.174;2023-03-23T19:17:12;3.67;;;3.57;;
673;SDS011;319;48.764;9.174;2023-03-23T19:19:39;5.50;;;5.40;;
673;SDS011;319;48.764;9.174;2023-03-23T19:22:06;5.40;;;5.30;;
673;SDS011;319;48.764;9.174;2023-03-23T19:24:37;3.47;;;3.37;;
673;SDS011;319;48.764;9.174;2023-03-23T19:27:04;2.60;;;2.60;;
673;SDS011;319;48.764;9.174;2023-03-23T19:29:32;5.80;;;5.70;;
673;SDS011;319;48.764;9.174;2023-03-23T19:31:59;9.20;;;9.00;;
673;SDS011;319;48.764;9.174;2023-03-23T19:34:26;11.47;;;11.17;;
673;SDS011;319;48.764;9.174;2023-03-23T19:36:54;10.80;;;10.50;;
673;SDS011;319;48.764;9.174;2023-03-23T19:39:21;10.20;;;9.90;;
673;SDS011;319;48.764;9.174;2023-03-23T19:41:48;11.70;;;11.40;;
673;SDS011;319;48.764;9.174;2023-03-23T19:44:15;10.57;;;10.27;;
673;SDS011;319;48.764;9.174;2023-03-23T19:46:44;10.70;;;10.40;;
673;SDS011;319;48.764;9.174;2023-03-23T19:49:11;9.63;;;9.43;;
673;SDS011;319;48.764;9.174;2023-03-23T19:51:38;11.13;;;10.83;;
673;SDS011;319;48.764;9.174;2023-03-23T19:54:05;11.37;;;11.07;;
673;SDS011;319;48.764;9.174;2023-03-23T19:56:32;9.40;;;9.20;;
673;SDS011;319;48.764;9.174;2023-03-23T19:59:00;10.30;;;10.00;;
673;SDS011;319;48.764;9.174;2023-03-23T20:01:27;11.63;;;11.33;;
673;SDS011;319;48.764;9.174;2023-03-23T20:03:57;12.00;;;11.70;;
673;SDS011;319;48.764;9.174;2023-03-23T20:06:25;11.40;;;11.10;;
673;SDS011;319;48.764;9.174;2023-03-23T20:08:52;10.80;;;10.50;;
673;SDS011;319;48.764;9.174;2023-03-23T20:11:19;9.50;;;9.30;;
673;SDS011;319;48.764;9.174;2023-03-23T20:13:46;9.83;;;9.63;;
673;SDS011;319;48.764;9.174;2023-03-23T20:16:13;7.00;;;6.80;;
673;SDS011;319;48.764;9.174;2023-03-23T20:18:44;8.83;;;8.63;;
673;SDS011;319;48.764;9.174;2023-03-23T20:21:13;8.80;;;8.60;;
673;SDS011;319;48.764;9.174;2023-03-23T20:23:42;9.80;;;9.60;;
673;SDS011;319;48.764;9.174;2023-03-23T20:26:12;8.50;;;8.30;;
673;SDS011;319;48.764;9.174;2023-03-23T20:28:43;10.17;;;9.90;;
673;SDS011;319;48.764;9.174;2023-03-23T20:31:11;10.73;;;10.43;;
673;SDS011;319;48.764;9.174;2023-03-23T20:33:40;8.97;;;8.77;;
673;SDS011;319;48.764;9.174;2023-03-23T20:36:07;8.80;;;8.60;;
673;SDS011;319;48.764;9.174;2023-03-23T20:38:36;9.53;;;9.33;;
673;SDS011;319;48.764;9.174;2023-03-23T20:41:06;9.43;;;9.23;;
673;SDS011;319;48.764;9.174;2023-03-23T20:43:36;11.80;;;11.50;;
673;SDS011;319;48.764;9.174;2023-03-23T20:46:03;10.93;;;10.63;;
673;SDS011;319;48.764;9.174;2023-03-23T20:48:32;11.53;;;11.23;;
673;SDS011;319;48.764;9.174;2023-03-23T20:51:01;7.20;;;7.00;;
673;SDS011;319;48.764;9.174;2023-03-23T20:53:31;9.80;;;9.60;;
673;SDS011;319;48.764;9.174;2023-03-23T20:56:00;7.90;;;7.70;;
673;SDS011;319;48.764;9.174;2023-03-23T20:58:29;10.07;;;9.80;;
673;SDS011;319;48.764;9.174;2023-03-23T21:00:57;6.00;;;5.90;;
673;SDS011;319;48.764;9.174;2023-03-23T21:03:28;9.47;;;9.27;;
673;SDS011;319;48.764;9.174;2023-03-23T21:05:56;1.50;;;1.50;;
673;SDS011;319;48.764;9.174;2023-03-23T21:08:23;5.50;;;5.40;;
673;SDS011;319;48.764;9.174;2023-03-23T21:10:50;9.50;;;9.30;;
673;SDS011;319;48.764;9.174;2023-03-23T21:13:18;4.83;;;4.73;;
673;SDS011;319;48.764;9.174;2023-03-23T21:15:45;8.90;;;8.70;;
673;SDS011;319;48.764;9.174;2023-03-23T21:18:12;4.00;;;3.90;;
673;SDS011;319;48.764;9.174;2023-03-23T21:20:39;7.13;;;6.93;;
673;SDS011;319;48.764;9.174;2023-03-23T21:23:07;5.60;;;5.50;;
673;SDS011;319;48.764;9.174;2023-03-23T21:25:35;5.37;;;5.27;;
673;SDS011;319;48.764;9.174;2023-03-23T21:28:02;6.00;;;5.90;;
673;SDS011;319;48.764;9.174;2023-03-23T21:30:32;7.50;;;7.30;;
673;SDS011;319;48.764;9.174;2023-03-23T21:33:02;8.60;;;8.40;;
673;SDS011;319;48.764;9.174;2023-03-23T21:35:29;8.00;;;7.80;;
673;SDS011;319;48.764;9.174;2023-03-23T21:37:56;7.03;;;6.83;;
673;SDS011;319;48.764;9.174;2023-03-23T21:40:23;6.00;;;5.90;;
673;SDS011;319;48.764;9.174;2023-03-23T21:42:51;6.30;;;6.20;;
673;SDS011;319;48.764;9.174;2023-03-23T21:45:18;9.00;;;8.80;;
673;SDS011;319;48.764;9.174;2023-03-23T21:47:47;8.33;;;8.13;;
673;SDS011;319;48.764;9.174;2023-03-23T21:50:20;6.80;;;6.60;;
673;SDS011;319;48.764;9.174;2023-03-23T21:52:48;6.20;;;6.10;;
673;SDS011;319;48.764;9.174;2023-03-23T21:55:18;6.80;;;6.60;;
673;SDS011;319;48.764;9.174;2023-03-23T21:57:45;6.17;;;6.07;;
673;SDS011;319;48.764;9.174;2023-03-23T22:00:15;7.70;;;7.50;;
673;SDS011;319;48.764;9.174;2023-03-23T22:02:42;8.90;;;8.70;;
673;SDS011;319;48.764;9.174;2023-03-23T22:05:11;4.50;;;4.40;;
673;SDS011;319;48.764;9.174;2023-03-23T22:07:39;5.07;;;4.97;;
673;SDS011;319;48.764;9.174;2023-03-23T22:10:10;3.17;;;3.07;;
673;SDS011;319;48.764;9.174;2023-03-23T22:12:38;9.60;;;9.40;;
673;SDS011;319;48.764;9.174;2023-03-23T22:15:06;1.30;;;1.30;;
673;SDS011;319;48.764;9.174;2023-03-23T22:17:35;0.80;;;0.80;;
673;SDS011;319;48.764;9.174;2023-03-23T22:20:03;0.90;;;0.90;;
673;SDS011;319;48.764;9.174;2023-03-23T22:22:32;0.90;;;0.90;;
673;SDS011;319;48.764;9.174;2023-03-23T22:24:59;0.90;;;0.90;;
673;SDS011;319;48.764;9.174;2023-03-23T22:27:26;0.80;;;0.80;;
673;SDS011;319;48.764;9.174;2023-03-23T22:29:53;0.87;;;0.87;;
673;SDS011;319;48.764;9.174;2023-03-23T22:32:20;0.80;;;0.80;;
673;SDS011;319;48.764;9.174;2023-03-23T22:34:47;0.90;;;0.90;;
673;SDS011;319;48.764;9.174;2023-03-23T22:37:15;0.80;;;0.80;;
673;SDS011;319;48.764;9.174;2023-03-23T22:39:44;0.90;;;0.90;;
673;SDS011;319;48.764;9.174;2023-03-23T22:42:10;0.90;;;0.90;;
673;SDS011;319;48.764;9.174;2023-03-23T22:44:37;0.90;;;0.90;;
673;SDS011;319;48.764;9.174;2023-03-23T22:47:04;1.03;;;1.03;;
673;SDS011;319;48.764;9.174;2023-03-23T22:49:32;1.00;;;1.00;;
673;SDS011;319;48.764;9.174;2023-03-23T22:51:59;0.90;;;0.90;;
673;SDS011;319;48.764;9.174;2023-03-23T22:54:27;0.90;;;0.90;;
673;SDS011;319;48.764;9.174;2023-03-23T22:56:56;0.90;;;0.90;;
673;SDS011;319;48.764;9.174;2023-03-23T22:59:22;0.90;;;0.90;;
673;SDS011;319;48.764;9.174;2023-03-23T23:01:49;0.90;;;0.90;;
673;SDS011;319;48.764;9.174;2023-03-23T23:04:16;0.90;;;0.90;;
673;SDS011;319;48.764;9.174;2023-03-23T23:06:43;0.90;;;0.90;;
673;SDS011;319;48.764;9.174;2023-03-23T23:09:10;0.90;;;0.90;;
673;SDS011;319;48.764;9.174;2023-03-23T23:11:37;0.90;;;0.90;;
673;SDS011;319;48.764;9.174;2023-03-23T23:14:05;0.90;;;0.90;;
673;SDS011;319;48.764;9.174;2023-03-23T23:16:32;0.90;;;0.90;;
673;SDS011;319;48.764;9.174;2023-03-23T23:18:59;0.90;;;0.90;;
673;SDS011;319;48.764;9.174;2023-03-23T23:21:25;0.90;;;0.90;;
673;SDS011;319;48.764;9.174;2023-03-23T23:23:52;0.90;;;0.90;;
673;SDS011;319;48.764;9.174;2023-03-23T23:26:20;0.87;;;0.87;;
673;SDS011;319;48.764;9.174;2023-03-23T23:28:47;0.90;;;0.90;;
673;SDS011;319;48.764;9.174;2023-03-23T23:31:16;0.90;;;0.90;;
673;SDS011;319;48.764;9.174;2023-03-23T23:33:46;0.90;;;0.90;;
673;SDS011;319;48.764;9.174;2023-03-23T23:36:13;0.90;;;0.90;;
673;SDS011;319;48.764;9.174;2023-03-23T23:38:40;0.90;;;0.90;;
673;SDS011;319;48.764;9.174;2023-03-23T23:41:07;0.87;;;0.87;;
673;SDS011;319;48.764;9.174;2023-03-23T23:43:34;0.93;;;0.93;;
673;SDS011;319;48.764;9.174;2023-03-23T23:46:01;0.80;;;0.80;;
673;SDS011;319;48.764;9.174;2023-03-23T23:48:29;0.80;;;0.80;;
673;SDS011;319;48.764;9.174;2023-03-23T23:50:56;0.90;;;0.90;;
673;SDS011;319;48.764;9.174;2023-03-23T23:53:22;0.90;;;0.90;;
673;SDS011;319;48.764;9.174;2023-03-23T23:55:49;0.90;;;0.90;;
673;SDS011;319;48.764;9.174;2023-03-23T23:58:16;0.90;;;0.90;;
